createdAt,value
2022-08-07T00:02:35.536Z,13.02
2022-08-07T00:04:01.199Z,11.47
2022-08-07T00:06:33.473Z,11.85
2022-08-07T00:09:17.054Z,11.55
2022-08-07T00:11:55.510Z,12.45
2022-08-07T00:14:31.462Z,11.77
2022-08-07T00:17:02.705Z,13.43
2022-08-07T00:20:00.259Z,12.48
2022-08-07T00:22:34.578Z,12.88
2022-08-07T00:25:07.384Z,14.73
2022-08-07T00:27:53.465Z,13.82
2022-08-07T00:30:27.590Z,13.57
2022-08-07T00:32:59.891Z,12.45
2022-08-07T00:35:30.042Z,14.57
2022-08-07T00:38:01.061Z,12.82
2022-08-07T00:40:40.079Z,12.73
2022-08-07T00:43:58.702Z,12.90
2022-08-07T00:46:00.302Z,14.40
2022-08-07T00:48:31.854Z,12.60
2022-08-07T00:51:01.077Z,13.40
2022-08-07T00:53:39.339Z,12.25
2022-08-07T00:56:15.683Z,12.73
2022-08-07T00:58:46.569Z,13.05
2022-08-07T01:01:15.143Z,14.52
2022-08-07T01:03:56.120Z,14.13
2022-08-07T01:06:30.027Z,12.38
2022-08-07T01:09:00.799Z,13.03
2022-08-07T01:12:23.740Z,13.23
2022-08-07T01:14:16.889Z,13.63
2022-08-07T01:16:46.854Z,13.50
2022-08-07T01:19:19.043Z,13.13
2022-08-07T01:21:48.309Z,13.07
2022-08-07T01:24:18.755Z,14.18
2022-08-07T01:26:51.640Z,13.50
2022-08-07T01:29:19.812Z,11.93
2022-08-07T01:31:48.635Z,12.70
2022-08-07T01:34:15.654Z,13.90
2022-08-07T01:36:44.108Z,28.38
2022-08-07T01:39:11.836Z,15.10
2022-08-07T01:42:07.134Z,14.77
2022-08-07T01:44:27.781Z,13.45
2022-08-07T01:46:54.662Z,12.57
2022-08-07T01:49:22.311Z,12.77
2022-08-07T01:52:04.170Z,11.75
2022-08-07T01:54:36.960Z,12.45
2022-08-07T01:57:24.119Z,13.43
2022-08-07T02:00:02.137Z,12.53
2022-08-07T02:03:15.952Z,12.68
2022-08-07T02:05:43.072Z,12.88
2022-08-07T02:08:19.234Z,13.98
2022-08-07T02:10:55.296Z,14.98
2022-08-07T02:13:58.245Z,13.10
2022-08-07T02:16:16.045Z,12.82
2022-08-07T02:18:47.279Z,12.68
2022-08-07T02:21:16.609Z,15.07
2022-08-07T02:23:45.065Z,14.30
2022-08-07T02:26:33.865Z,14.90
2022-08-07T02:29:03.146Z,13.50
2022-08-07T02:31:32.573Z,12.20
2022-08-07T02:34:03.274Z,14.15
2022-08-07T02:36:33.796Z,14.93
2022-08-07T02:39:09.441Z,13.20
2022-08-07T02:41:47.365Z,13.73
2022-08-07T02:44:21.432Z,13.55
2022-08-07T02:46:52.506Z,15.55
2022-08-07T02:49:56.183Z,14.82
2022-08-07T02:52:10.130Z,13.13
2022-08-07T02:54:42.763Z,13.93
2022-08-07T02:57:14.304Z,13.35
2022-08-07T02:59:45.660Z,15.85
2022-08-07T03:02:22.731Z,16.95
2022-08-07T03:04:51.847Z,19.27
2022-08-07T03:07:21.574Z,16.17
2022-08-07T03:10:08.928Z,17.30
2022-08-07T03:12:37.221Z,18.33
2022-08-07T03:15:07.802Z,29.90
2022-08-07T03:17:53.785Z,19.87
2022-08-07T03:20:22.165Z,18.42
2022-08-07T03:22:50.759Z,18.63
2022-08-07T03:25:21.156Z,16.90
2022-08-07T03:27:59.400Z,17.50
2022-08-07T03:30:37.476Z,18.93
2022-08-07T03:33:08.530Z,18.60
2022-08-07T03:35:50.037Z,18.27
2022-08-07T03:38:21.197Z,19.20
2022-08-07T03:40:57.727Z,20.92
2022-08-07T03:43:26.679Z,18.23
2022-08-07T03:46:00.135Z,18.25
2022-08-07T03:48:31.980Z,25.05
2022-08-07T03:51:02.003Z,21.38
2022-08-07T03:54:01.923Z,19.73
2022-08-07T03:56:32.719Z,20.33
2022-08-07T03:59:08.138Z,19.92
2022-08-07T04:01:43.091Z,19.85
2022-08-07T04:04:13.630Z,31.52
2022-08-07T04:06:45.385Z,24.27
2022-08-07T04:09:15.363Z,21.97
2022-08-07T04:12:28.182Z,22.33
2022-08-07T04:14:38.925Z,19.27
2022-08-07T04:17:20.478Z,20.67
2022-08-07T04:19:54.024Z,17.67
2022-08-07T04:22:28.685Z,18.00
2022-08-07T04:24:58.548Z,17.23
2022-08-07T04:27:26.667Z,19.52
2022-08-07T04:30:01.349Z,19.17
2022-08-07T04:32:34.364Z,17.40
2022-08-07T04:35:07.223Z,18.03
2022-08-07T04:37:52.705Z,15.32
2022-08-07T04:40:29.838Z,19.48
2022-08-07T04:43:02.085Z,17.80
2022-08-07T04:45:57.581Z,18.35
2022-08-07T04:48:40.548Z,17.77
2022-08-07T04:51:31.990Z,16.00
2022-08-07T04:54:36.881Z,18.75
2022-08-07T04:58:13.692Z,18.23
2022-08-07T05:00:14.556Z,20.70
2022-08-07T05:03:59.776Z,22.07
2022-08-07T05:06:20.094Z,23.67
2022-08-07T05:09:46.355Z,17.80
2022-08-07T05:12:26.794Z,17.83
2022-08-07T05:15:21.685Z,16.55
2022-08-07T05:17:57.062Z,16.67
2022-08-07T05:20:33.678Z,14.27
2022-08-07T05:23:07.121Z,13.77
2022-08-07T05:26:13.606Z,13.43
2022-08-07T05:28:34.498Z,14.13
2022-08-07T05:31:03.658Z,13.03
2022-08-07T05:33:35.574Z,12.02
2022-08-07T05:36:07.001Z,11.70
2022-08-07T05:39:01.140Z,11.25
2022-08-07T05:42:02.207Z,10.50
2022-08-07T05:44:17.231Z,10.67
2022-08-07T05:46:56.640Z,10.80
2022-08-07T05:49:23.775Z,10.30
2022-08-07T05:51:50.455Z,9.98
2022-08-07T05:54:30.091Z,10.73
2022-08-07T05:56:59.057Z,9.83
2022-08-07T05:59:27.393Z,10.45
2022-08-07T06:01:55.751Z,10.88
2022-08-07T06:04:30.032Z,9.15
2022-08-07T06:07:03.651Z,9.75
2022-08-07T06:10:03.833Z,8.50
2022-08-07T06:12:21.145Z,8.18
2022-08-07T06:15:05.614Z,7.72
2022-08-07T06:17:37.621Z,7.80
2022-08-07T06:20:06.117Z,9.18
2022-08-07T06:22:44.599Z,7.73
2022-08-07T06:25:28.854Z,9.60
2022-08-07T06:28:10.176Z,8.10
2022-08-07T06:30:45.873Z,7.57
2022-08-07T06:33:16.534Z,7.25
2022-08-07T06:35:48.148Z,7.33
2022-08-07T06:38:30.853Z,7.30
2022-08-07T06:41:01.124Z,7.82
2022-08-07T06:43:39.633Z,7.45
2022-08-07T06:46:13.445Z,6.43
2022-08-07T06:48:42.142Z,8.90
2022-08-07T06:51:31.341Z,7.18
2022-08-07T06:55:29.695Z,6.47
2022-08-07T06:56:54.292Z,7.90
2022-08-07T07:00:13.502Z,7.93
2022-08-07T07:02:48.223Z,7.37
2022-08-07T07:05:12.902Z,7.25
2022-08-07T07:07:59.982Z,7.18
2022-08-07T07:10:33.315Z,7.63
2022-08-07T07:13:10.026Z,7.13
2022-08-07T07:15:44.515Z,6.93
2022-08-07T07:18:47.059Z,7.18
2022-08-07T07:21:27.077Z,6.53
2022-08-07T07:24:12.668Z,6.30
2022-08-07T07:26:52.009Z,5.82
2022-08-07T07:29:55.757Z,5.53
2022-08-07T07:32:12.974Z,5.88
2022-08-07T07:34:45.969Z,6.18
2022-08-07T07:37:44.417Z,5.93
2022-08-07T07:40:10.174Z,4.95
2022-08-07T07:42:47.032Z,5.13
2022-08-07T07:45:24.511Z,5.38
2022-08-07T07:48:11.246Z,5.57
2022-08-07T07:50:40.318Z,6.05
2022-08-07T07:53:20.455Z,4.68
2022-08-07T07:55:57.884Z,4.70
2022-08-07T07:58:37.075Z,4.20
2022-08-07T08:02:01.737Z,4.70
2022-08-07T08:04:10.704Z,4.25
2022-08-07T08:06:51.148Z,5.35
2022-08-07T08:09:23.211Z,4.30
2022-08-07T08:12:01.871Z,4.32
2022-08-07T08:14:31.704Z,5.70
2022-08-07T08:17:55.676Z,4.50
2022-08-07T08:20:17.252Z,4.50
2022-08-07T08:23:01.718Z,4.60
2022-08-07T08:25:50.918Z,4.72
2022-08-07T08:28:23.974Z,4.63
2022-08-07T08:31:15.621Z,4.30
2022-08-07T08:33:49.330Z,4.25
2022-08-07T08:36:30.080Z,4.57
2022-08-07T08:39:02.160Z,3.85
2022-08-07T08:41:58.510Z,4.15
2022-08-07T08:44:44.343Z,3.72
2022-08-07T08:47:17.437Z,4.55
2022-08-07T08:50:05.148Z,4.07
2022-08-07T08:52:53.928Z,3.63
2022-08-07T08:55:55.429Z,4.65
2022-08-07T08:58:39.766Z,5.13
2022-08-07T09:01:29.813Z,4.20
2022-08-07T09:04:18.854Z,4.87
2022-08-07T09:07:03.342Z,3.65
2022-08-07T09:09:49.067Z,3.85
2022-08-07T09:13:01.504Z,4.00
2022-08-07T09:16:20.055Z,4.35
2022-08-07T09:18:47.317Z,3.20
2022-08-07T09:21:34.220Z,4.40
2022-08-07T09:24:30.559Z,3.90
2022-08-07T09:27:29.701Z,3.22
2022-08-07T09:30:09.347Z,3.10
2022-08-07T09:33:05.231Z,3.13
2022-08-07T09:36:09.651Z,3.72
2022-08-07T09:38:59.956Z,3.25
2022-08-07T09:41:58.555Z,4.43
2022-08-07T09:47:52.418Z,3.42
2022-08-07T09:48:06.324Z,3.27
2022-08-07T09:52:16.189Z,3.45
2022-08-07T09:54:08.252Z,3.65
2022-08-07T09:57:13.001Z,3.10
2022-08-07T10:00:14.553Z,3.97
2022-08-07T10:02:55.660Z,3.53
2022-08-07T10:05:58.223Z,4.20
2022-08-07T10:08:46.093Z,4.00
2022-08-07T10:12:02.433Z,3.30
2022-08-07T10:14:54.349Z,3.85
2022-08-07T10:18:00.309Z,5.13
2022-08-07T10:20:50.177Z,3.92
2022-08-07T10:24:06.480Z,3.53
2022-08-07T10:26:54.194Z,3.92
2022-08-07T10:29:58.585Z,3.58
2022-08-07T10:32:59.784Z,3.43
2022-08-07T10:36:11.420Z,4.20
2022-08-07T10:39:10.837Z,3.85
2022-08-07T10:41:53.281Z,3.15
2022-08-07T10:44:54.693Z,3.42
2022-08-07T10:47:52.545Z,3.23
2022-08-07T10:50:35.443Z,4.38
2022-08-07T10:53:27.581Z,4.70
2022-08-07T10:56:31.205Z,3.88
2022-08-07T10:59:47.589Z,4.32
2022-08-07T11:02:34.092Z,3.67
2022-08-07T11:05:13.700Z,3.60
2022-08-07T11:07:58.527Z,4.38
2022-08-07T11:10:39.777Z,4.63
2022-08-07T11:14:45.087Z,3.60
2022-08-07T11:16:30.815Z,4.13
2022-08-07T11:19:21.754Z,4.75
2022-08-07T11:22:26.593Z,5.13
2022-08-07T11:25:20.293Z,4.50
2022-08-07T11:28:08.624Z,3.42
2022-08-07T11:30:48.040Z,3.73
2022-08-07T11:33:59.450Z,4.93
2022-08-07T11:36:39.292Z,4.43
2022-08-07T11:39:10.071Z,3.33
2022-08-07T11:42:08.496Z,4.20
2022-08-07T11:45:05.461Z,3.13
2022-08-07T11:48:13.854Z,3.42
2022-08-07T11:50:59.565Z,3.65
2022-08-07T11:54:01.600Z,4.47
2022-08-07T11:56:56.387Z,3.42
2022-08-07T12:00:12.466Z,3.87
2022-08-07T12:03:41.403Z,3.20
2022-08-07T12:06:50.261Z,3.17
2022-08-07T12:09:35.505Z,3.05
2022-08-07T12:12:25.897Z,3.80
2022-08-07T12:15:17.043Z,4.90
2022-08-07T12:18:29.933Z,4.55
2022-08-07T12:22:35.657Z,3.80
2022-08-07T12:24:38.431Z,3.78
2022-08-07T12:27:16.183Z,3.20
2022-08-07T12:30:04.060Z,4.30
2022-08-07T12:32:42.093Z,3.78
2022-08-07T12:35:13.499Z,3.30
2022-08-07T12:38:09.784Z,5.25
2022-08-07T12:40:48.882Z,3.80
2022-08-07T12:44:03.011Z,3.40
2022-08-07T12:46:26.417Z,3.25
2022-08-07T12:49:51.048Z,3.67
2022-08-07T12:52:46.340Z,3.35
2022-08-07T12:55:40.726Z,3.03
2022-08-07T12:58:12.961Z,3.20
2022-08-07T13:01:00.083Z,3.42
2022-08-07T13:03:54.775Z,3.80
2022-08-07T13:06:58.873Z,3.00
2022-08-07T13:10:29.140Z,3.45
2022-08-07T13:13:10.931Z,3.97
2022-08-07T13:15:58.801Z,4.03
2022-08-07T13:18:57.095Z,3.42
2022-08-07T13:21:51.743Z,4.70
2022-08-07T13:24:35.296Z,3.25
2022-08-07T13:27:15.686Z,3.23
2022-08-07T13:30:03.591Z,3.20
2022-08-07T13:32:54.051Z,3.92
2022-08-07T13:36:00.436Z,4.93
2022-08-07T13:38:37.923Z,4.20
2022-08-07T13:41:25.601Z,3.30
2022-08-07T13:44:00.284Z,3.10
2022-08-07T13:46:36.559Z,3.60
2022-08-07T13:49:08.768Z,3.40
2022-08-07T13:52:22.661Z,4.32
2022-08-07T13:54:49.280Z,6.30
2022-08-07T13:57:32.049Z,3.17
2022-08-07T14:00:02.023Z,3.60
2022-08-07T14:02:49.500Z,3.35
2022-08-07T14:05:25.259Z,3.40
2022-08-07T14:08:06.100Z,3.50
2022-08-07T14:10:42.057Z,3.80
2022-08-07T14:13:33.639Z,3.20
2022-08-07T14:16:04.708Z,4.80
2022-08-07T14:18:50.003Z,4.97
2022-08-07T14:22:41.208Z,4.60
2022-08-07T14:24:28.079Z,3.20
2022-08-07T14:26:58.573Z,4.15
2022-08-07T14:30:07.446Z,4.18
2022-08-07T14:32:24.895Z,3.13
2022-08-07T14:34:53.380Z,3.40
2022-08-07T14:37:23.860Z,4.07
2022-08-07T14:43:57.075Z,3.10
2022-08-07T14:45:56.524Z,3.50
2022-08-07T14:48:28.809Z,4.77
2022-08-07T14:51:01.807Z,3.42
2022-08-07T14:54:08.981Z,3.95
2022-08-07T14:56:30.224Z,3.20
2022-08-07T14:59:02.685Z,3.92
2022-08-07T15:01:50.873Z,3.50
2022-08-07T15:04:21.771Z,4.25
2022-08-07T15:06:52.753Z,4.18
2022-08-07T15:09:59.529Z,3.17
2022-08-07T15:15:21.398Z,3.53
2022-08-07T15:18:33.847Z,3.78
2022-08-07T15:21:58.669Z,4.65
2022-08-07T15:25:13.685Z,3.85
2022-08-07T15:27:11.207Z,4.30
2022-08-07T15:30:04.494Z,4.10
2022-08-07T15:35:18.297Z,4.82
2022-08-07T15:38:18.370Z,3.20
2022-08-07T15:43:55.879Z,4.30
2022-08-07T15:46:31.804Z,4.63
2022-08-07T15:49:14.672Z,4.53
2022-08-07T15:54:39.249Z,4.05
2022-08-07T15:57:10.816Z,4.33
2022-08-07T15:59:59.450Z,4.28
2022-08-07T16:02:38.647Z,4.18
2022-08-07T16:05:20.116Z,4.80
2022-08-07T16:08:32.439Z,4.97
2022-08-07T16:10:43.081Z,3.93
2022-08-07T16:13:39.623Z,3.75
2022-08-07T16:16:48.850Z,4.70
2022-08-07T16:19:42.591Z,4.22
2022-08-07T16:22:55.253Z,4.15
2022-08-07T16:25:54.716Z,4.80
2022-08-07T16:29:18.384Z,4.07
2022-08-07T16:31:57.222Z,5.30
2022-08-07T16:34:49.950Z,3.88
2022-08-07T16:38:06.926Z,3.80
2022-08-07T16:40:57.224Z,4.27
2022-08-07T16:44:05.887Z,3.85
2022-08-07T16:47:07.897Z,3.75
2022-08-07T16:50:27.449Z,5.75
2022-08-07T16:53:14.696Z,4.72
2022-08-07T16:56:02.708Z,3.90
2022-08-07T16:59:10.581Z,4.25
2022-08-07T17:01:57.247Z,4.30
2022-08-07T17:04:36.922Z,4.25
2022-08-07T17:07:55.776Z,4.40
2022-08-07T17:10:32.327Z,4.43
2022-08-07T17:14:17.854Z,4.90
2022-08-07T17:16:56.071Z,4.82
2022-08-07T17:20:01.571Z,4.68
2022-08-07T17:22:42.464Z,4.60
2022-08-07T17:25:47.586Z,4.15
2022-08-07T17:28:19.496Z,4.85
2022-08-07T17:31:00.698Z,4.53
2022-08-07T17:34:15.570Z,4.97
2022-08-07T17:37:00.676Z,5.82
2022-08-07T17:39:57.883Z,5.13
2022-08-07T17:42:30.159Z,4.97
2022-08-07T17:44:58.948Z,4.78
2022-08-07T17:47:38.476Z,3.88
2022-08-07T17:50:46.821Z,4.03
2022-08-07T17:53:59.574Z,4.40
2022-08-07T17:56:26.145Z,4.65
2022-08-07T17:59:03.630Z,4.55
2022-08-07T18:02:29.359Z,4.60
2022-08-07T18:06:01.716Z,4.40
2022-08-07T18:09:01.405Z,4.70
2022-08-07T18:12:16.287Z,4.50
2022-08-07T18:15:33.042Z,4.63
2022-08-07T18:18:47.600Z,7.40
2022-08-07T18:21:38.185Z,4.10
2022-08-07T18:24:08.939Z,4.57
2022-08-07T18:26:57.215Z,4.70
2022-08-07T18:30:08.032Z,5.13
2022-08-07T18:32:32.766Z,4.85
2022-08-07T18:35:02.316Z,5.03
2022-08-07T18:38:54.851Z,6.00
2022-08-07T18:40:43.915Z,5.57
2022-08-07T18:43:43.394Z,4.65
2022-08-07T18:46:37.311Z,4.88
2022-08-07T18:50:32.459Z,5.47
2022-08-07T18:52:54.434Z,6.17
2022-08-07T18:56:04.131Z,4.20
2022-08-07T18:58:59.873Z,5.65
2022-08-07T19:02:32.263Z,4.50
2022-08-07T19:04:57.513Z,4.60
2022-08-07T19:08:05.684Z,5.60
2022-08-07T19:10:51.314Z,4.22
2022-08-07T19:13:51.038Z,4.60
2022-08-07T19:17:07.644Z,5.75
2022-08-07T19:20:28.799Z,4.72
2022-08-07T19:23:18.433Z,5.53
2022-08-07T19:26:23.328Z,4.72
2022-08-07T19:30:57.762Z,5.32
2022-08-07T19:32:08.294Z,4.70
2022-08-07T19:34:34.208Z,4.60
2022-08-07T19:37:09.909Z,5.10
2022-08-07T19:39:57.907Z,5.25
2022-08-07T19:42:31.575Z,5.00
2022-08-07T19:45:08.710Z,4.43
2022-08-07T19:47:42.138Z,5.28
2022-08-07T19:50:44.023Z,4.97
2022-08-07T19:52:58.441Z,5.63
2022-08-07T19:55:56.842Z,5.55
2022-08-07T19:58:16.184Z,4.97
2022-08-07T20:00:54.055Z,4.97
2022-08-07T20:03:34.891Z,6.27
2022-08-07T20:06:04.882Z,5.22
2022-08-07T20:08:38.920Z,4.93
2022-08-07T20:11:12.223Z,5.97
2022-08-07T20:13:46.536Z,5.50
2022-08-07T20:16:34.730Z,4.50
2022-08-07T20:19:06.024Z,5.28
2022-08-07T20:21:41.640Z,5.03
2022-08-07T20:24:24.103Z,7.25
2022-08-07T20:26:59.323Z,4.70
2022-08-07T20:29:47.950Z,4.93
2022-08-07T20:32:26.610Z,6.47
2022-08-07T20:35:11.298Z,5.25
2022-08-07T20:37:58.740Z,6.53
2022-08-07T20:40:32.017Z,5.57
2022-08-07T20:43:02.800Z,4.90
2022-08-07T20:46:28.293Z,5.53
2022-08-07T20:48:28.963Z,5.07
2022-08-07T20:50:58.997Z,5.55
2022-08-07T20:54:03.729Z,4.88
2022-08-07T20:56:16.048Z,4.87
2022-08-07T20:58:49.567Z,6.38
2022-08-07T21:01:20.870Z,4.68
2022-08-07T21:04:19.905Z,5.55
2022-08-07T21:06:42.403Z,5.22
2022-08-07T21:09:17.202Z,6.13
2022-08-07T21:11:51.057Z,4.70
2022-08-07T21:14:32.611Z,4.78
2022-08-07T21:18:00.362Z,5.25
2022-08-07T21:20:04.741Z,5.82
2022-08-07T21:22:51.271Z,4.70
2022-08-07T21:25:29.749Z,5.43
2022-08-07T21:28:48.174Z,5.88
2022-08-07T21:32:10.956Z,6.53
2022-08-07T21:34:48.687Z,8.65
2022-08-07T21:37:25.802Z,4.77
2022-08-07T21:40:08.708Z,5.38
2022-08-07T21:43:04.501Z,5.00
2022-08-07T21:46:05.428Z,5.20
2022-08-07T21:48:33.630Z,6.05
2022-08-07T21:51:51.039Z,5.20
2022-08-07T21:54:45.956Z,6.13
2022-08-07T21:57:44.988Z,5.63
2022-08-07T22:00:25.148Z,7.20
2022-08-07T22:03:30.620Z,4.75
2022-08-07T22:06:06.692Z,4.93
2022-08-07T22:08:46.110Z,6.32
2022-08-07T22:11:18.072Z,5.55
2022-08-07T22:13:53.052Z,6.45
2022-08-07T22:16:42.183Z,6.70
2022-08-07T22:19:23.689Z,5.00
2022-08-07T22:22:10.776Z,6.20
2022-08-07T22:25:10.758Z,5.47
2022-08-07T22:28:08.319Z,5.97
2022-08-07T22:30:53.103Z,5.88
2022-08-07T22:33:52.584Z,5.77
2022-08-07T22:36:46.391Z,6.07
2022-08-07T22:39:35.341Z,5.90
2022-08-07T22:42:25.911Z,5.53
2022-08-07T22:44:59.689Z,5.50
2022-08-07T22:48:31.352Z,7.43
2022-08-07T22:51:04.120Z,6.07
2022-08-07T22:54:05.196Z,5.40
2022-08-07T22:56:59.106Z,6.13
2022-08-07T22:59:46.968Z,6.18
2022-08-07T23:02:34.493Z,5.80
2022-08-07T23:06:10.293Z,6.22
2022-08-07T23:08:53.049Z,6.22
2022-08-07T23:11:22.773Z,5.65
2022-08-07T23:14:19.701Z,6.88
2022-08-07T23:17:15.916Z,5.53
2022-08-07T23:20:10.019Z,5.95
2022-08-07T23:22:49.613Z,6.85
2022-08-07T23:25:57.779Z,5.25
2022-08-07T23:28:48.812Z,5.00
2022-08-07T23:34:20.773Z,6.80
2022-08-07T23:35:01.867Z,6.03
2022-08-07T23:38:01.951Z,6.07
2022-08-07T23:40:49.401Z,5.35
2022-08-07T23:43:21.016Z,5.50
2022-08-07T23:46:03.019Z,6.77
2022-08-07T23:48:47.117Z,6.55
2022-08-07T23:53:05.707Z,6.97
2022-08-07T23:54:46.288Z,5.68
2022-08-07T23:57:36.303Z,6.18
